Have a Safe July 4th! 

Flight Track Log - Related Links

Times and Time Zones

All times are in EST time to prevent confusion due to time zone crossing. See the SWA2768 flight status page for this flight to view local times or setup timezone preferences in your user account.

Time Position Orientation Groundspeed Altitude Reporting Facility
EST Latitude Longitude Course Direction KTS MPH feet Rate Location/Type
Sat 02:46:29 PM 32.2869 -90.0697 119° Southeast 159 183 1,600  Level Memphis Center
Sat 02:47:31 PM 32.2667 -90.0261 119° Southeast 222 255 4,200 2,829 Climbing Memphis Center
Sat 02:48:32 PM 32.3297 -90.0292 358° North 231 266 7,400 2,829 Climbing Memphis Center
Sat 02:49:34 PM 32.4008 -90.0442 350° North 250 288 10,000 2,855 Climbing Memphis Center
Sat 02:50:36 PM 32.4756 -90.0606 350° North 265 305 13,300 3,756 Climbing Memphis Center
Sat 02:51:37 PM 32.5844 -90.0839 350° North 320 368 17,700 3,805 Climbing Memphis Center
Sat 02:52:39 PM 32.6789 -90.1047 349° North 338 389 21,100 3,122 Climbing Memphis Center
Sat 02:53:40 PM 32.7800 -90.1278 349° North 360 414 24,100 2,878 Climbing Memphis Center
Sat 02:54:42 PM 32.8861 -90.1500 350° North 377 434 27,000 2,927 Climbing Memphis Center
Sat 02:55:43 PM 32.9978 -90.1361 North 397 457 30,100 2,878 Climbing Memphis Center
Sat 02:56:45 PM 33.1067 -90.1189 North 394 453 32,900 2,371 Climbing Memphis Center
Sat 02:57:47 PM 33.2128 -90.1017 North 386 444 35,000 2,000 Climbing Memphis Center
Sat 02:58:48 PM 33.3164 -90.0831 North 379 436 37,000 1,805 Climbing Memphis Center
Sat 02:59:50 PM 33.4186 -90.0658 North 373 429 38,700 1,610 Climbing Memphis Center
Sat 03:00:51 PM 33.5431 -90.0442 North 376 433 40,300 1,073 Climbing Memphis Center
Sat 03:01:53 PM 33.6478 -90.0269 North 379 436 40,900 339 Climbing Memphis Center
Sat 03:02:55 PM 33.7564 -90.0083 North 390 449 41,000 49 Climbing Memphis Center
Sat 03:03:56 PM 33.8764 -89.9875 North 395 455 41,000  Level Memphis Center
Sat 03:04:58 PM 33.9853 -89.9686 North 392 451 41,000  Level Memphis Center
Sat 03:05:59 PM 34.0936 -89.9497 North 389 448 41,000  Level Memphis Center
Sat 03:07:01 PM 34.2008 -89.9317 North 387 445 41,000  Level Memphis Center
Sat 03:08:02 PM 34.3078 -89.9128 North 385 443 41,000  Level Memphis Center
Sat 03:09:04 PM 34.4142 -89.8947 North 383 441 41,000  Level Memphis Center
Sat 03:10:05 PM 34.5206 -89.8761 North 382 440 41,000  Level Memphis Center
Sat 03:11:07 PM 34.6267 -89.8572 North 382 440 41,000  Level Memphis Center
Sat 03:12:09 PM 34.7339 -89.8389 North 381 438 41,000  Level Memphis Center
Sat 03:13:10 PM 34.8467 -89.8186 North 382 440 41,000  Level Memphis Center
Sat 03:14:12 PM 34.9522 -89.7975 North 383 441 41,000  Level Memphis Center
Sat 03:15:13 PM 35.0603 -89.7794 North 380 437 41,000  Level Memphis Center
Sat 03:16:15 PM 35.1658 -89.7606 North 379 436 41,000  Level Memphis Center
Sat 03:17:16 PM 35.2733 -89.7411 North 383 441 41,000  Level Memphis Center
Sat 03:18:18 PM 35.3794 -89.7231 North 382 440 41,000  Level Memphis Center
Sat 03:19:19 PM 35.4875 -89.7042 North 386 444 41,000  Level Memphis Center
Sat 03:20:21 PM 35.5947 -89.6842 North 385 443 41,000  Level Memphis Center
Sat 03:21:22 PM 35.7144 -89.6636 North 386 444 41,000  Level Memphis Center
Sat 03:22:24 PM 35.8219 -89.6436 North 388 447 41,000  Level Memphis Center
Sat 03:23:25 PM 35.9297 -89.6242 North 390 449 41,000  Level Memphis Center
Sat 03:24:27 PM 36.0381 -89.6050 North 391 450 41,000  Level Memphis Center
Sat 03:25:28 PM 36.1475 -89.5850 North 393 452 41,000  Level Memphis Center
Sat 03:26:30 PM 36.2564 -89.5653 North 393 452 41,000  Level Memphis Center
Sat 03:27:32 PM 36.3675 -89.5447 North 396 456 41,000  Level Memphis Center
Sat 03:28:33 PM 36.4789 -89.5242 North 396 456 41,000  Level Memphis Center
Sat 03:29:35 PM 36.5900 -89.5036 North 397 457 41,000  Level Memphis Center
Sat 03:30:36 PM 36.7003 -89.4839 North 396 456 41,000  Level Memphis Center
Sat 03:31:38 PM 36.8314 -89.4594 North 396 456 41,000  Level Memphis Center
Sat 03:32:39 PM 36.9406 -89.4403 North 394 453 41,000  Level Memphis Center
Sat 03:33:41 PM 37.0486 -89.4189 North 393 452 41,000  Level Memphis Center
Sat 03:34:42 PM 37.1589 -89.3981 North 397 457 41,000  Level Memphis Center
Sat 03:35:25 PM 37.2242 -89.3878 North 394 453 41,000  Level Kansas City Center
Sat 03:36:26 PM 37.3558 -89.3639 North 396 456 41,000  Level Kansas City Center
Sat 03:37:28 PM 37.4658 -89.3428 North 399 459 41,000  Level Kansas City Center
Sat 03:38:29 PM 37.5750 -89.3211 North 396 456 41,000  Level Kansas City Center
Sat 03:39:31 PM 37.6842 -89.3025 North 396 456 41,000  Level Kansas City Center
Sat 03:40:32 PM 37.7922 -89.2800 North 394 453 41,000  Level Kansas City Center
Sat 03:41:34 PM 37.9106 -89.2569 North 395 455 41,000  Level Kansas City Center
Sat 03:42:36 PM 38.0186 -89.2369 North 393 452 41,000 -390 Level Kansas City Center
Sat 03:43:37 PM 38.1211 -89.2175 North 391 450 40,200 -878 Descending Kansas City Center
Sat 03:44:39 PM 38.2292 -89.1958 North 393 452 39,200 -1,024 Descending Kansas City Center
Sat 03:45:40 PM 38.3594 -89.1725 North 395 455 38,100 -976 Descending Kansas City Center
Sat 03:46:42 PM 38.4653 -89.1569 North 387 445 37,200 -919 Descending Kansas City Center
Sat 03:47:44 PM 38.5656 -89.1531 North 368 423 36,200 -976 Descending Kansas City Center
Sat 03:48:45 PM 38.6622 -89.1492 North 355 409 35,200 -585 Descending Kansas City Center
Sat 03:49:47 PM 38.7642 -89.1444 North 363 418 35,000 -581 Descending Kansas City Center
Sat 03:50:49 PM 38.8681 -89.1397 North 372 428 34,000 -968 Descending Kansas City Center
Sat 03:51:51 PM 38.9761 -89.1344 North 385 443 33,000 -927 Descending Kansas City Center
Sat 03:52:52 PM 39.0839 -89.1300 North 389 448 32,100 -1,024 Descending Kansas City Center
Sat 03:53:54 PM 39.2133 -89.1244 North 389 448 30,900 -1,113 Descending Kansas City Center
Sat 03:54:56 PM 39.3167 -89.1206 North 380 437 29,800 -927 Descending Kansas City Center
Sat 03:55:57 PM 39.4219 -89.1156 North 376 433 29,000 -390 Descending Kansas City Center
Sat 03:56:59 PM 39.5281 -89.1122 North 379 436 29,000  Level Kansas City Center
Sat 03:58:01 PM 39.6319 -89.1061 North 376 433 29,000  Level Kansas City Center
Sat 03:59:03 PM 39.7353 -89.1028 North 374 430 29,000  Level Kansas City Center
Sat 04:00:04 PM 39.8397 -89.0981 North 375 432 29,000 -341 Level Kansas City Center
Sat 04:01:06 PM 39.9656 -89.0925 North 376 433 28,300 -829 Descending Kansas City Center
Sat 04:02:07 PM 40.0692 -89.0869 North 374 430 27,300 -976 Descending Kansas City Center
Sat 04:03:09 PM 40.1700 -89.0833 North 368 423 26,300 -968 Descending Kansas City Center
Sat 04:04:11 PM 40.2706 -89.0786 North 363 418 25,300 -976 Descending Kansas City Center
Sat 04:05:12 PM 40.3733 -89.0744 North 368 423 24,300 -634 Descending Kansas City Center
Sat 04:06:14 PM 40.4747 -89.0483 11° North 376 433 24,000 -146 Descending Kansas City Center
Sat 04:07:15 PM 40.5756 -88.9956 22° Northeast 389 448 24,000 -1,122 Level Kansas City Center
Sat 04:08:17 PM 40.6944 -88.9331 22° Northeast 387 445 21,700 -1,821 Descending Kansas City Center
Sat 04:09:40 PM 40.8289 -88.8644 21° North 376 433 19,600 -1,697 Descending Chicago Center
Sat 04:10:42 PM 40.9158 -88.8194 21° North 368 423 17,600 -2,146 Descending Chicago Center
Sat 04:11:43 PM 41.0075 -88.7711 22° Northeast 355 409 15,200 -2,244 Descending Chicago Center
Sat 04:12:45 PM 41.0953 -88.7206 23° Northeast 345 397 13,000 -2,244 Descending Chicago Center
Sat 04:13:46 PM 41.1847 -88.6528 30° Northeast 346 398 10,600 -1,672 Descending Chicago Center
Sat 04:14:47 PM 41.2714 -88.5864 30° Northeast 313 360 9,600 -1,366 Descending Chicago Center
Sat 04:15:49 PM 41.3433 -88.5319 30° Northeast 299 344 7,800 -1,463 Descending Chicago Center
Sat 04:16:50 PM 41.4036 -88.4608 41° Northeast 291 335 6,600 -878 Descending Chicago Center
Sat 04:17:52 PM 41.4528 -88.3783 51° Northeast 282 325 6,000 -293 Descending Chicago Center
Sat 04:18:53 PM 41.5011 -88.2992 51° Northeast 276 318 6,000 -197 Level Chicago Center
Sat 04:19:54 PM 41.5428 -88.2125 57° Northeast 273 314 5,600 -683 Descending Chicago Center
Sat 04:20:56 PM 41.5836 -88.1231 59° Northeast 276 318 4,600 -780 Descending Chicago Center
Sat 04:21:57 PM 41.6242 -88.0350 58° Northeast 276 318 4,000 -295 Descending Chicago Center
Sat 04:22:58 PM 41.6636 -87.9497 58° Northeast 272 313 4,000  Level Chicago Center
Sat 04:24:00 PM 41.7036 -87.8633 58° Northeast 272 313 4,000  Level Chicago Center
Sat 04:25:01 PM 41.7422 -87.7789 58° Northeast 270 311 4,000  Level Chicago Center
Sat 04:26:02 PM 41.7564 -87.7031 76° East 239 275 4,000 -390 Level Chicago Center
Sat 04:27:04 PM 41.7853 -87.6367 60° Northeast 199 229 3,200 -829 Descending Chicago Center
Sat 04:28:05 PM 41.8292 -87.6558 342° North 193 222 2,300 -787 Descending Chicago Center
Sat 04:29:06 PM 41.8247 -87.7047 263° West 159 183 1,600 -585 Descending Chicago Center
Sat 04:30:08 PM 41.7997 -87.7356 223° Southwest 134 154 1,100 -484 Descending Chicago Center

Login

Don't have an account? Register now (free) for customized features, flight alerts, and more!